Time,TemperatureF,DewpointF,PressureIn,WindDirection,WindDirectionDegrees,WindSpeedMPH,WindSpeedGustMPH,Humidity,HourlyPrecipIn,Conditions,Clouds,dailyrainin,SoftwareType,DateUTC
2013-01-28 00:13:00,58.1,51.3,29.99,SE,135,3.7,-999.0,78,-99.99,,,0.00,Acu-Link.com,2013-01-28 06:13:00,
2013-01-28 00:28:00,58.3,51.5,29.99,SE,135,2.2,-999.0,78,-99.99,,,0.00,Acu-Link.com,2013-01-28 06:28:00,
2013-01-28 00:43:00,58.3,51.5,29.98,SE,135,2.2,-999.0,78,-99.99,,,0.00,Acu-Link.com,2013-01-28 06:43:00,
2013-01-28 00:58:00,58.3,51.5,29.98,South,180,3.2,-999.0,78,-99.99,,,0.00,Acu-Link.com,2013-01-28 06:58:00,
2013-01-28 01:13:00,58.1,51.6,29.98,SSE,157,2.7,-999.0,79,-99.99,,,0.00,Acu-Link.com,2013-01-28 07:13:00,
2013-01-28 01:28:00,59.0,52.5,29.99,SSE,157,2.7,-999.0,79,-99.99,,,0.00,Acu-Link.com,2013-01-28 07:28:00,
2013-01-28 01:43:00,59.9,53.0,30.00,East,90,4.2,-999.0,78,-99.99,,,0.00,Acu-Link.com,2013-01-28 07:43:00,
2013-01-28 01:59:00,60.3,53.1,30.00,SSE,157,3.7,-999.0,77,-99.99,,,0.00,Acu-Link.com,2013-01-28 07:59:00,
2013-01-28 02:14:00,60.6,52.6,30.00,SE,135,7.8,-999.0,75,-99.99,,,0.00,Acu-Link.com,2013-01-28 08:14:00,
2013-01-28 02:29:00,60.8,52.5,30.00,SSE,157,4.7,-999.0,74,-99.99,,,0.00,Acu-Link.com,2013-01-28 08:29:00,
2013-01-28 02:44:00,61.0,52.7,30.01,South,180,4.2,-999.0,74,-99.99,,,0.00,Acu-Link.com,2013-01-28 08:44:00,
2013-01-28 02:59:00,61.0,52.7,30.00,WSW,247,5.3,-999.0,74,-99.99,,,0.00,Acu-Link.com,2013-01-28 08:59:00,
2013-01-28 03:15:00,61.0,52.7,30.01,South,180,4.2,-999.0,74,-99.99,,,0.00,Acu-Link.com,2013-01-28 09:15:00,
2013-01-28 03:30:00,60.8,52.5,30.00,East,90,5.3,-999.0,74,-99.99,,,0.00,Acu-Link.com,2013-01-28 09:30:00,
2013-01-28 03:45:00,60.8,52.1,29.99,WNW,292,6.3,-999.0,73,-99.99,,,0.00,Acu-Link.com,2013-01-28 09:45:00,
2013-01-28 04:00:00,60.8,52.1,30.00,SSE,157,2.7,-999.0,73,-99.99,,,0.00,Acu-Link.com,2013-01-28 10:00:00,
2013-01-28 04:15:00,60.6,51.9,30.00,South,180,4.2,-999.0,73,-99.99,,,0.00,Acu-Link.com,2013-01-28 10:15:00,
2013-01-28 04:30:00,60.6,51.9,30.00,South,180,2.7,-999.0,73,-99.99,,,0.00,Acu-Link.com,2013-01-28 10:30:00,
2013-01-28 04:45:00,60.4,51.7,29.99,ESE,112,5.8,-999.0,73,-99.99,,,0.00,Acu-Link.com,2013-01-28 10:45:00,
2013-01-28 05:00:00,60.3,51.6,29.99,ESE,112,3.7,-999.0,73,-99.99,,,0.00,Acu-Link.com,2013-01-28 11:00:00,
2013-01-28 05:16:00,59.5,52.3,30.00,SSE,157,6.3,-999.0,77,-99.99,,,0.00,Acu-Link.com,2013-01-28 11:16:00,
2013-01-28 05:31:00,59.2,52.3,29.99,SE,135,5.8,-999.0,78,-99.99,,,0.00,Acu-Link.com,2013-01-28 11:31:00,
2013-01-28 05:46:00,58.6,52.1,29.99,SE,135,4.2,-999.0,79,-99.99,,,0.00,Acu-Link.com,2013-01-28 11:46:00,
2013-01-28 06:01:00,58.5,52.4,30.01,SSE,157,2.7,-999.0,80,-99.99,,,0.00,Acu-Link.com,2013-01-28 12:01:00,
2013-01-28 06:16:00,58.8,52.6,30.00,SSE,157,3.2,-999.0,80,-99.99,,,0.00,Acu-Link.com,2013-01-28 12:16:00,
2013-01-28 06:31:00,58.8,52.6,30.01,ESE,112,3.7,-999.0,80,-99.99,,,0.00,Acu-Link.com,2013-01-28 12:31:00,
2013-01-28 06:46:00,58.5,52.7,30.01,SE,135,3.2,-999.0,81,-99.99,,,0.00,Acu-Link.com,2013-01-28 12:46:00,
2013-01-28 07:01:00,58.5,53.0,30.02,South,180,2.7,-999.0,82,-99.99,,,0.00,Acu-Link.com,2013-01-28 13:01:00,
2013-01-28 07:16:00,58.8,53.3,30.02,South,180,2.7,-999.0,82,-99.99,,,0.00,Acu-Link.com,2013-01-28 13:16:00,
2013-01-28 07:32:00,58.8,53.3,30.02,SE,135,5.8,-999.0,82,-99.99,,,0.00,Acu-Link.com,2013-01-28 13:32:00,
2013-01-28 07:47:00,58.8,53.3,30.02,ESE,112,3.2,-999.0,82,-99.99,,,0.00,Acu-Link.com,2013-01-28 13:47:00,
2013-01-28 08:02:00,59.0,53.8,30.03,SSE,157,3.7,-999.0,83,-99.99,,,0.00,Acu-Link.com,2013-01-28 14:02:00,
2013-01-28 08:17:00,58.6,54.1,30.02,South,180,4.7,-999.0,85,-99.99,,,0.00,Acu-Link.com,2013-01-28 14:17:00,
2013-01-28 08:32:00,58.8,54.3,30.02,South,180,3.7,-999.0,85,-99.99,,,0.00,Acu-Link.com,2013-01-28 14:32:00,
2013-01-28 08:47:00,58.5,54.3,30.02,SSE,157,3.7,-999.0,86,-99.99,,,0.00,Acu-Link.com,2013-01-28 14:47:00,
2013-01-28 09:02:00,58.5,54.3,30.03,SSE,157,3.7,-999.0,86,-99.99,,,0.00,Acu-Link.com,2013-01-28 15:02:00,
2013-01-28 09:17:00,58.8,54.6,30.02,SE,135,6.3,-999.0,86,-99.99,,,0.00,Acu-Link.com,2013-01-28 15:17:00,
2013-01-28 09:32:00,59.4,54.9,30.03,SE,135,3.2,-999.0,85,-99.99,,,0.00,Acu-Link.com,2013-01-28 15:32:00,
2013-01-28 09:47:00,59.9,55.1,30.03,ESE,112,3.2,-999.0,84,-99.99,,,0.00,Acu-Link.com,2013-01-28 15:47:00,
2013-01-28 10:03:00,59.9,55.1,30.03,SW,225,3.7,-999.0,84,-99.99,,,0.00,Acu-Link.com,2013-01-28 16:03:00,
2013-01-28 10:18:00,61.0,55.8,30.03,West,270,5.3,-999.0,83,-99.99,,,0.00,Acu-Link.com,2013-01-28 16:18:00,
2013-01-28 10:33:00,62.1,56.2,30.03,SW,225,6.8,-999.0,81,-99.99,,,0.00,Acu-Link.com,2013-01-28 16:33:00,
2013-01-28 10:48:00,62.6,56.0,30.02,SSE,157,5.8,-999.0,79,-99.99,,,0.00,Acu-Link.com,2013-01-28 16:48:00,
2013-01-28 11:03:00,63.0,56.4,30.02,SE,135,4.2,-999.0,79,-99.99,,,0.00,Acu-Link.com,2013-01-28 17:03:00,
2013-01-28 11:18:00,64.0,57.0,30.01,SSW,202,4.7,-999.0,78,-99.99,,,0.00,Acu-Link.com,2013-01-28 17:18:00,
2013-01-28 11:33:00,64.8,57.8,30.00,East,90,4.7,-999.0,78,-99.99,,,0.00,Acu-Link.com,2013-01-28 17:33:00,
2013-01-28 11:48:00,65.8,58.0,30.00,ESE,112,2.2,-999.0,76,-99.99,,,0.00,Acu-Link.com,2013-01-28 17:48:00,
2013-01-28 12:04:00,66.2,58.0,29.99,SSE,157,3.7,-999.0,75,-99.99,,,0.00,Acu-Link.com,2013-01-28 18:04:00,
2013-01-28 12:19:00,66.7,58.1,29.98,SSW,202,3.7,-999.0,74,-99.99,,,0.00,Acu-Link.com,2013-01-28 18:19:00,
2013-01-28 12:34:00,68.7,58.5,29.97,SE,135,5.3,-999.0,70,-99.99,,,0.00,Acu-Link.com,2013-01-28 18:34:00,
2013-01-28 12:49:00,68.2,58.4,29.97,South,180,6.8,-999.0,71,-99.99,,,0.00,Acu-Link.com,2013-01-28 18:49:00,
2013-01-28 13:04:00,70.7,59.2,29.96,South,180,7.3,-999.0,67,-99.99,,,0.00,Acu-Link.com,2013-01-28 19:04:00,
2013-01-28 13:19:00,71.4,59.0,29.94,ESE,112,4.2,-999.0,65,-99.99,,,0.00,Acu-Link.com,2013-01-28 19:19:00,
2013-01-28 13:35:00,72.1,59.7,29.93,SSE,157,4.7,-999.0,65,-99.99,,,0.00,Acu-Link.com,2013-01-28 19:35:00,
2013-01-28 13:50:00,73.0,59.6,29.93,SE,135,9.4,-999.0,63,-99.99,,,0.00,Acu-Link.com,2013-01-28 19:50:00,
2013-01-28 14:05:00,71.8,59.0,29.92,SSE,157,5.3,-999.0,64,-99.99,,,0.00,Acu-Link.com,2013-01-28 20:05:00,
2013-01-28 14:20:00,72.0,59.1,29.92,South,180,7.8,-999.0,64,-99.99,,,0.00,Acu-Link.com,2013-01-28 20:20:00,
2013-01-28 14:35:00,73.4,59.1,29.92,East,90,4.7,-999.0,61,-99.99,,,0.00,Acu-Link.com,2013-01-28 20:35:00,
2013-01-28 14:50:00,73.4,59.1,29.90,ESE,112,6.8,-999.0,61,-99.99,,,0.00,Acu-Link.com,2013-01-28 20:50:00,
2013-01-28 15:05:00,72.3,58.5,29.92,SE,135,7.8,-999.0,62,-99.99,,,0.00,Acu-Link.com,2013-01-28 21:05:00,
2013-01-28 15:20:00,72.9,59.1,29.91,SSE,157,4.7,-999.0,62,-99.99,,,0.00,Acu-Link.com,2013-01-28 21:20:00,
2013-01-28 15:35:00,72.5,58.3,29.91,SSE,157,5.8,-999.0,61,-99.99,,,0.00,Acu-Link.com,2013-01-28 21:35:00,
2013-01-28 15:51:00,72.5,57.8,29.90,ESE,112,4.2,-999.0,60,-99.99,,,0.00,Acu-Link.com,2013-01-28 21:51:00,
2013-01-28 16:06:00,72.1,57.4,29.92,SE,135,4.2,-999.0,60,-99.99,,,0.00,Acu-Link.com,2013-01-28 22:06:00,
2013-01-28 16:21:00,72.0,57.3,29.91,SSE,157,4.2,-999.0,60,-99.99,,,0.00,Acu-Link.com,2013-01-28 22:21:00,
2013-01-28 16:36:00,71.2,57.1,29.92,SE,135,3.2,-999.0,61,-99.99,,,0.00,Acu-Link.com,2013-01-28 22:36:00,
2013-01-28 16:51:00,70.3,57.1,29.90,SSE,157,2.7,-999.0,63,-99.99,,,0.00,Acu-Link.com,2013-01-28 22:51:00,
2013-01-28 17:06:00,69.3,57.0,29.91,SE,135,2.2,-999.0,65,-99.99,,,0.00,Acu-Link.com,2013-01-28 23:06:00,
2013-01-28 17:22:00,68.7,56.9,29.90,SE,135,2.7,-999.0,66,-99.99,,,0.00,Acu-Link.com,2013-01-28 23:22:00,
2013-01-28 17:37:00,68.4,56.6,29.90,SSE,157,2.7,-999.0,66,-99.99,,,0.00,Acu-Link.com,2013-01-28 23:37:00,
2013-01-28 17:52:00,67.5,56.1,29.90,SSE,157,2.7,-999.0,67,-99.99,,,0.00,Acu-Link.com,2013-01-28 23:52:00,
2013-01-28 18:07:00,67.5,56.1,29.92,SE,135,2.2,-999.0,67,-99.99,,,0.00,Acu-Link.com,2013-01-29 00:07:00,
2013-01-28 18:22:00,67.1,56.6,29.90,SE,135,5.8,-999.0,69,-99.99,,,0.00,Acu-Link.com,2013-01-29 00:22:00,
2013-01-28 18:37:00,66.6,56.5,29.90,SE,135,2.7,-999.0,70,-99.99,,,0.00,Acu-Link.com,2013-01-29 00:37:00,
2013-01-28 18:52:00,66.4,56.3,29.91,SE,135,6.8,-999.0,70,-99.99,,,0.00,Acu-Link.com,2013-01-29 00:52:00,
2013-01-28 19:07:00,66.4,56.3,29.91,SSE,157,3.7,-999.0,70,-99.99,,,0.00,Acu-Link.com,2013-01-29 01:07:00,
2013-01-28 19:22:00,66.0,56.3,29.90,SSE,157,4.2,-999.0,71,-99.99,,,0.00,Acu-Link.com,2013-01-29 01:22:00,
2013-01-28 19:38:00,65.3,56.0,29.90,SSE,157,2.7,-999.0,72,-99.99,,,0.00,Acu-Link.com,2013-01-29 01:38:00,
2013-01-28 19:53:00,64.8,55.9,29.90,South,180,3.7,-999.0,73,-99.99,,,0.00,Acu-Link.com,2013-01-29 01:53:00,
2013-01-28 20:08:00,64.4,55.6,29.90,SSE,157,3.7,-999.0,73,-99.99,,,0.00,Acu-Link.com,2013-01-29 02:08:00,
2013-01-28 20:23:00,64.0,55.5,29.90,SSE,157,4.2,-999.0,74,-99.99,,,0.00,Acu-Link.com,2013-01-29 02:23:00,
2013-01-28 20:38:00,63.7,55.6,29.90,ESE,112,5.3,-999.0,75,-99.99,,,0.00,Acu-Link.com,2013-01-29 02:38:00,
2013-01-28 20:53:00,63.9,55.8,29.91,ESE,112,2.7,-999.0,75,-99.99,,,0.00,Acu-Link.com,2013-01-29 02:53:00,
2013-01-28 21:08:00,63.7,55.6,29.91,SE,135,3.7,-999.0,75,-99.99,,,0.00,Acu-Link.com,2013-01-29 03:08:00,
2013-01-28 21:23:00,63.7,56.0,29.91,ESE,112,3.7,-999.0,76,-99.99,,,0.00,Acu-Link.com,2013-01-29 03:23:00,
2013-01-28 21:38:00,63.9,56.2,29.90,South,180,4.7,-999.0,76,-99.99,,,0.00,Acu-Link.com,2013-01-29 03:38:00,
2013-01-28 21:53:00,63.7,56.0,29.90,SSE,157,6.3,-999.0,76,-99.99,,,0.00,Acu-Link.com,2013-01-29 03:53:00,
2013-01-28 22:09:00,63.9,56.2,29.91,SSE,157,4.7,-999.0,76,-99.99,,,0.00,Acu-Link.com,2013-01-29 04:09:00,
2013-01-28 22:24:00,63.7,56.0,29.90,SSE,157,3.7,-999.0,76,-99.99,,,0.00,Acu-Link.com,2013-01-29 04:24:00,
2013-01-28 22:39:00,63.3,56.0,29.91,South,180,5.8,-999.0,77,-99.99,,,0.00,Acu-Link.com,2013-01-29 04:39:00,
2013-01-28 22:54:00,63.1,56.1,29.91,West,270,3.7,-999.0,78,-99.99,,,0.00,Acu-Link.com,2013-01-29 04:54:00,
2013-01-28 23:09:00,62.4,55.8,29.91,SE,135,4.2,-999.0,79,-99.99,,,0.00,Acu-Link.com,2013-01-29 05:09:00,
2013-01-28 23:24:00,62.2,55.6,29.91,SW,225,4.2,-999.0,79,-99.99,,,0.00,Acu-Link.com,2013-01-29 05:24:00,
2013-01-28 23:39:00,61.3,55.4,29.91,SSE,157,3.7,-999.0,81,-99.99,,,0.00,Acu-Link.com,2013-01-29 05:39:00,
2013-01-28 23:54:00,61.0,55.5,29.91,SSE,157,2.7,-999.0,82,-99.99,,,0.00,Acu-Link.com,2013-01-29 05:54:00,